sensor_id;sensor_type;location;lat;lon;timestamp;temperature;humidity
21580;DHT22;10951;59.656;9.666;2022-10-16T00:01:30;5.50;99.90
21580;DHT22;10951;59.656;9.666;2022-10-16T00:03:59;5.40;99.90
21580;DHT22;10951;59.656;9.666;2022-10-16T00:06:27;5.30;99.90
21580;DHT22;10951;59.656;9.666;2022-10-16T00:08:54;5.30;99.90
21580;DHT22;10951;59.656;9.666;2022-10-16T00:11:27;5.30;99.90
21580;DHT22;10951;59.656;9.666;2022-10-16T00:13:58;5.30;99.90
21580;DHT22;10951;59.656;9.666;2022-10-16T00:16:26;5.20;99.90
21580;DHT22;10951;59.656;9.666;2022-10-16T00:18:53;5.20;99.90
21580;DHT22;10951;59.656;9.666;2022-10-16T00:21:26;5.10;99.90
21580;DHT22;10951;59.656;9.666;2022-10-16T00:23:56;5.00;99.90
21580;DHT22;10951;59.656;9.666;2022-10-16T00:26:23;5.00;99.90
21580;DHT22;10951;59.656;9.666;2022-10-16T00:28:51;4.90;99.90
21580;DHT22;10951;59.656;9.666;2022-10-16T00:31:20;4.90;99.90
21580;DHT22;10951;59.656;9.666;2022-10-16T00:33:48;4.90;99.90
21580;DHT22;10951;59.656;9.666;2022-10-16T00:36:18;4.90;99.90
21580;DHT22;10951;59.656;9.666;2022-10-16T00:38:45;4.80;99.90
21580;DHT22;10951;59.656;9.666;2022-10-16T00:41:15;4.70;99.90
21580;DHT22;10951;59.656;9.666;2022-10-16T00:43:43;4.60;99.90
21580;DHT22;10951;59.656;9.666;2022-10-16T00:48:37;4.50;99.90
21580;DHT22;10951;59.656;9.666;2022-10-16T00:51:06;4.40;99.90
21580;DHT22;10951;59.656;9.666;2022-10-16T00:53:34;4.40;99.90
21580;DHT22;10951;59.656;9.666;2022-10-16T00:56:02;4.30;99.90
21580;DHT22;10951;59.656;9.666;2022-10-16T00:58:29;4.30;99.90
21580;DHT22;10951;59.656;9.666;2022-10-16T01:00:56;4.20;99.90
21580;DHT22;10951;59.656;9.666;2022-10-16T01:03:29;4.20;99.90
21580;DHT22;10951;59.656;9.666;2022-10-16T01:08:38;4.30;99.90
21580;DHT22;10951;59.656;9.666;2022-10-16T01:14:02;4.20;99.90
21580;DHT22;10951;59.656;9.666;2022-10-16T01:16:44;4.20;99.90
21580;DHT22;10951;59.656;9.666;2022-10-16T01:21:45;4.20;99.90
21580;DHT22;10951;59.656;9.666;2022-10-16T01:27:29;4.10;99.90
21580;DHT22;10951;59.656;9.666;2022-10-16T01:30:10;4.10;99.90
21580;DHT22;10951;59.656;9.666;2022-10-16T01:35:29;4.10;99.90
21580;DHT22;10951;59.656;9.666;2022-10-16T01:38:05;4.10;99.90
21580;DHT22;10951;59.656;9.666;2022-10-16T01:40:39;4.10;99.90
21580;DHT22;10951;59.656;9.666;2022-10-16T01:43:17;4.10;99.90
21580;DHT22;10951;59.656;9.666;2022-10-16T01:45:46;4.00;99.90
21580;DHT22;10951;59.656;9.666;2022-10-16T01:48:16;4.00;99.90
21580;DHT22;10951;59.656;9.666;2022-10-16T01:50:50;4.00;99.90
21580;DHT22;10951;59.656;9.666;2022-10-16T01:53:19;4.00;99.90
21580;DHT22;10951;59.656;9.666;2022-10-16T01:55:47;4.00;99.90
21580;DHT22;10951;59.656;9.666;2022-10-16T01:58:15;4.10;99.90
21580;DHT22;10951;59.656;9.666;2022-10-16T02:00:45;4.10;99.90
21580;DHT22;10951;59.656;9.666;2022-10-16T02:03:15;4.00;99.90
21580;DHT22;10951;59.656;9.666;2022-10-16T02:05:57;3.90;99.90
21580;DHT22;10951;59.656;9.666;2022-10-16T02:08:27;3.80;99.90
21580;DHT22;10951;59.656;9.666;2022-10-16T02:10:58;3.80;99.90
21580;DHT22;10951;59.656;9.666;2022-10-16T02:13:34;3.70;99.90
21580;DHT22;10951;59.656;9.666;2022-10-16T02:16:03;3.70;99.90
21580;DHT22;10951;59.656;9.666;2022-10-16T02:18:31;3.60;99.90
21580;DHT22;10951;59.656;9.666;2022-10-16T02:21:22;3.60;99.90
21580;DHT22;10951;59.656;9.666;2022-10-16T02:24:11;3.60;99.90
21580;DHT22;10951;59.656;9.666;2022-10-16T02:26:51;3.70;99.90
21580;DHT22;10951;59.656;9.666;2022-10-16T02:29:24;3.60;99.90
21580;DHT22;10951;59.656;9.666;2022-10-16T02:31:58;3.60;99.90
21580;DHT22;10951;59.656;9.666;2022-10-16T02:34:28;3.60;99.90
21580;DHT22;10951;59.656;9.666;2022-10-16T02:36:58;3.60;99.90
21580;DHT22;10951;59.656;9.666;2022-10-16T02:39:27;3.60;99.90
21580;DHT22;10951;59.656;9.666;2022-10-16T02:41:55;3.60;99.90
21580;DHT22;10951;59.656;9.666;2022-10-16T02:44:22;3.50;99.90
21580;DHT22;10951;59.656;9.666;2022-10-16T02:46:49;3.50;99.90
21580;DHT22;10951;59.656;9.666;2022-10-16T02:49:16;3.40;99.90
21580;DHT22;10951;59.656;9.666;2022-10-16T02:51:43;3.40;99.90
21580;DHT22;10951;59.656;9.666;2022-10-16T02:54:10;3.40;99.90
21580;DHT22;10951;59.656;9.666;2022-10-16T02:56:37;3.30;99.90
21580;DHT22;10951;59.656;9.666;2022-10-16T02:59:04;3.30;99.90
21580;DHT22;10951;59.656;9.666;2022-10-16T03:01:31;3.30;99.90
21580;DHT22;10951;59.656;9.666;2022-10-16T03:03:58;3.30;99.90
21580;DHT22;10951;59.656;9.666;2022-10-16T03:06:25;3.30;99.90
21580;DHT22;10951;59.656;9.666;2022-10-16T03:08:52;3.30;99.90
21580;DHT22;10951;59.656;9.666;2022-10-16T03:11:19;3.30;99.90
21580;DHT22;10951;59.656;9.666;2022-10-16T03:13:45;3.30;99.90
21580;DHT22;10951;59.656;9.666;2022-10-16T03:16:12;3.30;99.90
21580;DHT22;10951;59.656;9.666;2022-10-16T03:18:40;3.30;99.90
21580;DHT22;10951;59.656;9.666;2022-10-16T03:21:07;3.30;99.90
21580;DHT22;10951;59.656;9.666;2022-10-16T03:23:34;3.20;99.90
21580;DHT22;10951;59.656;9.666;2022-10-16T03:26:00;3.20;99.90
21580;DHT22;10951;59.656;9.666;2022-10-16T03:28:27;3.20;99.90
21580;DHT22;10951;59.656;9.666;2022-10-16T03:30:54;3.20;99.90
21580;DHT22;10951;59.656;9.666;2022-10-16T03:33:21;3.20;99.90
21580;DHT22;10951;59.656;9.666;2022-10-16T03:35:53;3.10;99.90
21580;DHT22;10951;59.656;9.666;2022-10-16T03:38:20;3.10;99.90
21580;DHT22;10951;59.656;9.666;2022-10-16T03:40:48;3.10;99.90
21580;DHT22;10951;59.656;9.666;2022-10-16T03:43:14;3.10;99.90
21580;DHT22;10951;59.656;9.666;2022-10-16T03:45:42;3.10;99.90
21580;DHT22;10951;59.656;9.666;2022-10-16T03:48:09;3.10;99.90
21580;DHT22;10951;59.656;9.666;2022-10-16T03:50:36;3.10;99.90
21580;DHT22;10951;59.656;9.666;2022-10-16T03:53:03;3.10;99.90
21580;DHT22;10951;59.656;9.666;2022-10-16T03:55:30;3.00;99.90
21580;DHT22;10951;59.656;9.666;2022-10-16T03:57:57;3.10;99.90
21580;DHT22;10951;59.656;9.666;2022-10-16T04:00:24;3.10;99.90
21580;DHT22;10951;59.656;9.666;2022-10-16T04:02:50;3.10;99.90
21580;DHT22;10951;59.656;9.666;2022-10-16T04:05:17;3.10;99.90
21580;DHT22;10951;59.656;9.666;2022-10-16T04:07:44;3.00;99.90
21580;DHT22;10951;59.656;9.666;2022-10-16T04:10:11;3.00;99.90
21580;DHT22;10951;59.656;9.666;2022-10-16T04:12:38;3.00;99.90
21580;DHT22;10951;59.656;9.666;2022-10-16T04:15:05;3.00;99.90
21580;DHT22;10951;59.656;9.666;2022-10-16T04:17:32;3.00;99.90
21580;DHT22;10951;59.656;9.666;2022-10-16T04:19:59;3.00;99.90
21580;DHT22;10951;59.656;9.666;2022-10-16T04:22:28;3.00;99.90
21580;DHT22;10951;59.656;9.666;2022-10-16T04:24:55;3.00;99.90
21580;DHT22;10951;59.656;9.666;2022-10-16T04:27:22;2.90;99.90
21580;DHT22;10951;59.656;9.666;2022-10-16T04:29:49;2.90;99.90
21580;DHT22;10951;59.656;9.666;2022-10-16T04:32:16;2.90;99.90
21580;DHT22;10951;59.656;9.666;2022-10-16T04:34:43;2.90;99.90
21580;DHT22;10951;59.656;9.666;2022-10-16T04:37:13;2.80;99.90
21580;DHT22;10951;59.656;9.666;2022-10-16T04:39:40;2.80;99.90
21580;DHT22;10951;59.656;9.666;2022-10-16T04:42:07;2.80;99.90
21580;DHT22;10951;59.656;9.666;2022-10-16T04:44:34;2.80;99.90
21580;DHT22;10951;59.656;9.666;2022-10-16T04:47:01;2.80;99.90
21580;DHT22;10951;59.656;9.666;2022-10-16T04:49:28;2.80;99.90
21580;DHT22;10951;59.656;9.666;2022-10-16T04:51:55;2.90;99.90
21580;DHT22;10951;59.656;9.666;2022-10-16T04:54:22;2.80;99.90
21580;DHT22;10951;59.656;9.666;2022-10-16T04:56:52;2.80;99.90
21580;DHT22;10951;59.656;9.666;2022-10-16T04:59:22;2.80;99.90
21580;DHT22;10951;59.656;9.666;2022-10-16T05:01:51;2.90;99.90
21580;DHT22;10951;59.656;9.666;2022-10-16T05:04:18;2.90;99.90
21580;DHT22;10951;59.656;9.666;2022-10-16T05:06:48;2.90;99.90
21580;DHT22;10951;59.656;9.666;2022-10-16T05:09:15;2.90;99.90
21580;DHT22;10951;59.656;9.666;2022-10-16T05:11:42;2.90;99.90
21580;DHT22;10951;59.656;9.666;2022-10-16T05:14:09;2.90;99.90
21580;DHT22;10951;59.656;9.666;2022-10-16T05:16:36;3.00;99.90
21580;DHT22;10951;59.656;9.666;2022-10-16T05:19:03;2.90;99.90
21580;DHT22;10951;59.656;9.666;2022-10-16T05:21:52;3.00;99.90
21580;DHT22;10951;59.656;9.666;2022-10-16T05:24:19;3.00;99.90
21580;DHT22;10951;59.656;9.666;2022-10-16T05:26:46;3.00;99.90
21580;DHT22;10951;59.656;9.666;2022-10-16T05:29:13;3.00;99.90
21580;DHT22;10951;59.656;9.666;2022-10-16T05:31:40;3.00;99.90
21580;DHT22;10951;59.656;9.666;2022-10-16T05:34:06;3.00;99.90
21580;DHT22;10951;59.656;9.666;2022-10-16T05:36:33;3.10;99.90
21580;DHT22;10951;59.656;9.666;2022-10-16T05:39:01;3.20;99.90
21580;DHT22;10951;59.656;9.666;2022-10-16T05:41:27;3.20;99.90
21580;DHT22;10951;59.656;9.666;2022-10-16T05:43:54;3.20;99.90
21580;DHT22;10951;59.656;9.666;2022-10-16T05:46:21;3.20;99.90
21580;DHT22;10951;59.656;9.666;2022-10-16T05:48:48;3.20;99.90
21580;DHT22;10951;59.656;9.666;2022-10-16T05:51:17;3.10;99.90
21580;DHT22;10951;59.656;9.666;2022-10-16T05:53:44;3.20;99.90
21580;DHT22;10951;59.656;9.666;2022-10-16T05:56:12;3.10;99.90
21580;DHT22;10951;59.656;9.666;2022-10-16T05:58:40;3.10;99.90
21580;DHT22;10951;59.656;9.666;2022-10-16T06:01:13;3.10;99.90
21580;DHT22;10951;59.656;9.666;2022-10-16T06:03:41;3.00;99.90
21580;DHT22;10951;59.656;9.666;2022-10-16T06:06:13;3.10;99.90
21580;DHT22;10951;59.656;9.666;2022-10-16T06:08:41;3.00;99.90
21580;DHT22;10951;59.656;9.666;2022-10-16T06:11:11;3.00;99.90
21580;DHT22;10951;59.656;9.666;2022-10-16T06:13:38;3.10;99.90
21580;DHT22;10951;59.656;9.666;2022-10-16T06:16:09;3.10;99.90
21580;DHT22;10951;59.656;9.666;2022-10-16T06:18:36;3.10;99.90
21580;DHT22;10951;59.656;9.666;2022-10-16T06:21:09;3.20;99.90
21580;DHT22;10951;59.656;9.666;2022-10-16T06:23:36;3.20;99.90
21580;DHT22;10951;59.656;9.666;2022-10-16T06:26:07;3.10;99.90
21580;DHT22;10951;59.656;9.666;2022-10-16T06:28:35;3.20;99.90
21580;DHT22;10951;59.656;9.666;2022-10-16T06:31:03;3.20;99.90
21580;DHT22;10951;59.656;9.666;2022-10-16T06:33:34;3.20;99.90
21580;DHT22;10951;59.656;9.666;2022-10-16T06:36:06;3.30;99.90
21580;DHT22;10951;59.656;9.666;2022-10-16T06:38:33;3.30;99.90
21580;DHT22;10951;59.656;9.666;2022-10-16T06:41:00;3.30;99.90
21580;DHT22;10951;59.656;9.666;2022-10-16T06:43:29;3.30;99.90
21580;DHT22;10951;59.656;9.666;2022-10-16T06:45:59;3.40;99.90
21580;DHT22;10951;59.656;9.666;2022-10-16T06:48:28;3.40;99.90
21580;DHT22;10951;59.656;9.666;2022-10-16T06:51:15;3.50;99.90
21580;DHT22;10951;59.656;9.666;2022-10-16T06:53:45;3.60;99.90
21580;DHT22;10951;59.656;9.666;2022-10-16T06:56:30;3.60;99.90
21580;DHT22;10951;59.656;9.666;2022-10-16T06:58:58;3.60;99.90
21580;DHT22;10951;59.656;9.666;2022-10-16T07:01:26;3.60;99.90
21580;DHT22;10951;59.656;9.666;2022-10-16T07:03:53;3.60;99.90
21580;DHT22;10951;59.656;9.666;2022-10-16T07:06:21;3.70;99.90
21580;DHT22;10951;59.656;9.666;2022-10-16T07:08:49;3.70;99.90
21580;DHT22;10951;59.656;9.666;2022-10-16T07:11:22;3.70;99.90
21580;DHT22;10951;59.656;9.666;2022-10-16T07:13:50;3.80;99.90
21580;DHT22;10951;59.656;9.666;2022-10-16T07:16:24;3.70;99.90
21580;DHT22;10951;59.656;9.666;2022-10-16T07:18:57;3.80;99.90
21580;DHT22;10951;59.656;9.666;2022-10-16T07:21:28;3.90;99.90
21580;DHT22;10951;59.656;9.666;2022-10-16T07:23:59;3.80;99.90
21580;DHT22;10951;59.656;9.666;2022-10-16T07:26:29;3.90;99.90
21580;DHT22;10951;59.656;9.666;2022-10-16T07:28:57;3.90;99.90
21580;DHT22;10951;59.656;9.666;2022-10-16T07:31:24;3.90;99.90
21580;DHT22;10951;59.656;9.666;2022-10-16T07:33:52;4.00;99.90
21580;DHT22;10951;59.656;9.666;2022-10-16T07:36:20;4.00;99.90
21580;DHT22;10951;59.656;9.666;2022-10-16T07:38:47;4.00;99.90
21580;DHT22;10951;59.656;9.666;2022-10-16T07:41:16;4.00;99.90
21580;DHT22;10951;59.656;9.666;2022-10-16T07:43:48;4.10;99.90
21580;DHT22;10951;59.656;9.666;2022-10-16T07:46:16;4.10;99.90
21580;DHT22;10951;59.656;9.666;2022-10-16T07:48:44;4.20;99.90
21580;DHT22;10951;59.656;9.666;2022-10-16T07:51:18;4.20;99.90
21580;DHT22;10951;59.656;9.666;2022-10-16T07:53:46;4.30;99.90
21580;DHT22;10951;59.656;9.666;2022-10-16T07:56:13;4.30;99.90
21580;DHT22;10951;59.656;9.666;2022-10-16T07:58:41;4.30;99.90
21580;DHT22;10951;59.656;9.666;2022-10-16T08:01:11;4.30;99.90
21580;DHT22;10951;59.656;9.666;2022-10-16T08:03:38;4.20;99.90
21580;DHT22;10951;59.656;9.666;2022-10-16T08:06:07;4.20;99.90
21580;DHT22;10951;59.656;9.666;2022-10-16T08:08:34;4.20;99.90
21580;DHT22;10951;59.656;9.666;2022-10-16T08:11:02;4.10;99.90
21580;DHT22;10951;59.656;9.666;2022-10-16T08:13:31;4.10;99.90
21580;DHT22;10951;59.656;9.666;2022-10-16T08:15:58;4.10;99.90
21580;DHT22;10951;59.656;9.666;2022-10-16T08:18:25;4.10;99.90
21580;DHT22;10951;59.656;9.666;2022-10-16T08:20:57;4.00;99.90
21580;DHT22;10951;59.656;9.666;2022-10-16T08:23:25;4.00;99.90
21580;DHT22;10951;59.656;9.666;2022-10-16T08:25:54;4.00;99.90
21580;DHT22;10951;59.656;9.666;2022-10-16T08:28:22;4.00;99.90
21580;DHT22;10951;59.656;9.666;2022-10-16T08:30:49;4.10;99.90
21580;DHT22;10951;59.656;9.666;2022-10-16T08:33:16;4.10;99.90
21580;DHT22;10951;59.656;9.666;2022-10-16T08:35:42;4.10;99.90
21580;DHT22;10951;59.656;9.666;2022-10-16T08:38:09;4.10;99.90
21580;DHT22;10951;59.656;9.666;2022-10-16T08:40:37;4.10;99.90
21580;DHT22;10951;59.656;9.666;2022-10-16T08:51:08;4.20;99.90
21580;DHT22;10951;59.656;9.666;2022-10-16T08:53:46;4.20;99.90
21580;DHT22;10951;59.656;9.666;2022-10-16T08:56:15;4.20;99.90
21580;DHT22;10951;59.656;9.666;2022-10-16T08:58:45;4.20;99.90
21580;DHT22;10951;59.656;9.666;2022-10-16T09:01:19;4.20;99.90
21580;DHT22;10951;59.656;9.666;2022-10-16T09:04:20;4.20;99.90
21580;DHT22;10951;59.656;9.666;2022-10-16T09:07:10;4.20;99.90
21580;DHT22;10951;59.656;9.666;2022-10-16T09:10:06;4.20;99.90
21580;DHT22;10951;59.656;9.666;2022-10-16T09:12:57;4.10;99.90
21580;DHT22;10951;59.656;9.666;2022-10-16T09:15:40;4.10;99.90
21580;DHT22;10951;59.656;9.666;2022-10-16T09:18:48;4.00;99.90
21580;DHT22;10951;59.656;9.666;2022-10-16T09:21:32;4.00;99.90
21580;DHT22;10951;59.656;9.666;2022-10-16T09:24:17;4.00;99.90
21580;DHT22;10951;59.656;9.666;2022-10-16T09:26:46;4.00;99.90
21580;DHT22;10951;59.656;9.666;2022-10-16T09:29:14;4.10;99.90
21580;DHT22;10951;59.656;9.666;2022-10-16T09:31:43;4.20;99.90
21580;DHT22;10951;59.656;9.666;2022-10-16T09:34:35;4.20;99.90
21580;DHT22;10951;59.656;9.666;2022-10-16T09:37:08;4.40;99.90
21580;DHT22;10951;59.656;9.666;2022-10-16T09:39:47;4.40;99.90
21580;DHT22;10951;59.656;9.666;2022-10-16T09:42:35;4.40;99.90
21580;DHT22;10951;59.656;9.666;2022-10-16T09:45:03;4.50;99.90
21580;DHT22;10951;59.656;9.666;2022-10-16T09:47:31;4.50;99.90
21580;DHT22;10951;59.656;9.666;2022-10-16T09:50:05;4.50;99.90
21580;DHT22;10951;59.656;9.666;2022-10-16T09:52:33;4.50;99.90
21580;DHT22;10951;59.656;9.666;2022-10-16T09:55:14;4.50;99.90
21580;DHT22;10951;59.656;9.666;2022-10-16T09:57:51;4.60;99.90
21580;DHT22;10951;59.656;9.666;2022-10-16T10:00:19;4.70;99.90
21580;DHT22;10951;59.656;9.666;2022-10-16T10:02:46;4.80;99.90
21580;DHT22;10951;59.656;9.666;2022-10-16T10:05:25;4.80;99.90
21580;DHT22;10951;59.656;9.666;2022-10-16T10:10:27;4.90;99.90
21580;DHT22;10951;59.656;9.666;2022-10-16T10:12:55;4.90;99.90
21580;DHT22;10951;59.656;9.666;2022-10-16T10:15:23;4.90;99.90
21580;DHT22;10951;59.656;9.666;2022-10-16T10:17:55;5.00;99.90
21580;DHT22;10951;59.656;9.666;2022-10-16T10:20:29;5.00;99.90
21580;DHT22;10951;59.656;9.666;2022-10-16T10:22:57;5.00;99.90
21580;DHT22;10951;59.656;9.666;2022-10-16T10:25:43;5.10;99.90
21580;DHT22;10951;59.656;9.666;2022-10-16T10:28:30;5.20;99.90
21580;DHT22;10951;59.656;9.666;2022-10-16T10:31:24;5.30;99.90
21580;DHT22;10951;59.656;9.666;2022-10-16T10:34:32;5.40;99.90
21580;DHT22;10951;59.656;9.666;2022-10-16T10:40:07;5.90;99.90
21580;DHT22;10951;59.656;9.666;2022-10-16T10:45:46;6.30;99.90
21580;DHT22;10951;59.656;9.666;2022-10-16T10:48:31;6.50;99.90
21580;DHT22;10951;59.656;9.666;2022-10-16T10:51:05;6.60;99.90
21580;DHT22;10951;59.656;9.666;2022-10-16T10:53:52;6.70;99.90
21580;DHT22;10951;59.656;9.666;2022-10-16T10:56:57;6.80;99.90
21580;DHT22;10951;59.656;9.666;2022-10-16T11:08:43;6.70;99.90
21580;DHT22;10951;59.656;9.666;2022-10-16T11:11:45;6.70;99.90
21580;DHT22;10951;59.656;9.666;2022-10-16T11:14:21;6.70;99.90
21580;DHT22;10951;59.656;9.666;2022-10-16T11:16:54;6.70;99.90
21580;DHT22;10951;59.656;9.666;2022-10-16T11:19:42;6.60;99.90
21580;DHT22;10951;59.656;9.666;2022-10-16T11:30:12;6.50;99.90
21580;DHT22;10951;59.656;9.666;2022-10-16T11:41:37;6.50;99.90
21580;DHT22;10951;59.656;9.666;2022-10-16T11:44:18;6.60;99.90
21580;DHT22;10951;59.656;9.666;2022-10-16T11:46:58;6.60;99.90
21580;DHT22;10951;59.656;9.666;2022-10-16T11:49:50;6.60;99.90
21580;DHT22;10951;59.656;9.666;2022-10-16T11:52:28;6.70;99.90
21580;DHT22;10951;59.656;9.666;2022-10-16T11:55:05;6.70;99.90
21580;DHT22;10951;59.656;9.666;2022-10-16T11:57:47;6.80;99.90
21580;DHT22;10951;59.656;9.666;2022-10-16T12:00:22;7.00;99.90
21580;DHT22;10951;59.656;9.666;2022-10-16T12:03:21;7.00;99.90
21580;DHT22;10951;59.656;9.666;2022-10-16T12:08:40;7.30;99.90
21580;DHT22;10951;59.656;9.666;2022-10-16T12:11:19;7.30;99.90
21580;DHT22;10951;59.656;9.666;2022-10-16T12:13:47;7.30;99.90
21580;DHT22;10951;59.656;9.666;2022-10-16T12:18:45;7.40;99.90
21580;DHT22;10951;59.656;9.666;2022-10-16T12:21:14;7.40;99.90
21580;DHT22;10951;59.656;9.666;2022-10-16T12:23:56;7.40;99.90
21580;DHT22;10951;59.656;9.666;2022-10-16T12:26:37;7.40;99.90
21580;DHT22;10951;59.656;9.666;2022-10-16T12:29:33;7.40;99.90
21580;DHT22;10951;59.656;9.666;2022-10-16T12:32:03;7.50;99.90
21580;DHT22;10951;59.656;9.666;2022-10-16T12:34:42;7.50;99.90
21580;DHT22;10951;59.656;9.666;2022-10-16T12:37:11;7.50;99.90
21580;DHT22;10951;59.656;9.666;2022-10-16T12:39:39;7.70;99.90
21580;DHT22;10951;59.656;9.666;2022-10-16T12:44:53;7.80;99.90
21580;DHT22;10951;59.656;9.666;2022-10-16T12:49:57;7.80;99.90
21580;DHT22;10951;59.656;9.666;2022-10-16T12:52:38;7.90;99.90
21580;DHT22;10951;59.656;9.666;2022-10-16T12:55:18;8.00;99.90
21580;DHT22;10951;59.656;9.666;2022-10-16T13:06:13;8.10;99.90
21580;DHT22;10951;59.656;9.666;2022-10-16T13:11:23;8.10;99.90
21580;DHT22;10951;59.656;9.666;2022-10-16T13:24:42;8.00;99.90
21580;DHT22;10951;59.656;9.666;2022-10-16T13:30:24;8.00;99.90
21580;DHT22;10951;59.656;9.666;2022-10-16T13:33:20;8.00;99.90
21580;DHT22;10951;59.656;9.666;2022-10-16T13:35:55;8.00;99.90
21580;DHT22;10951;59.656;9.666;2022-10-16T13:38:28;8.10;99.90
21580;DHT22;10951;59.656;9.666;2022-10-16T13:40:58;8.20;99.90
21580;DHT22;10951;59.656;9.666;2022-10-16T13:43:37;8.30;99.90
21580;DHT22;10951;59.656;9.666;2022-10-16T13:46:16;8.40;99.90
21580;DHT22;10951;59.656;9.666;2022-10-16T13:48:44;8.60;99.90
21580;DHT22;10951;59.656;9.666;2022-10-16T13:51:16;8.60;99.90
21580;DHT22;10951;59.656;9.666;2022-10-16T13:53:44;8.70;99.90
21580;DHT22;10951;59.656;9.666;2022-10-16T13:56:13;8.80;99.90
21580;DHT22;10951;59.656;9.666;2022-10-16T13:58:41;8.80;99.90
21580;DHT22;10951;59.656;9.666;2022-10-16T14:01:23;8.90;99.90
21580;DHT22;10951;59.656;9.666;2022-10-16T14:04:06;9.10;99.90
21580;DHT22;10951;59.656;9.666;2022-10-16T14:06:35;9.20;99.90
21580;DHT22;10951;59.656;9.666;2022-10-16T14:11:56;9.40;99.90
21580;DHT22;10951;59.656;9.666;2022-10-16T14:14:25;9.50;99.90
21580;DHT22;10951;59.656;9.666;2022-10-16T14:16:53;9.50;99.90
21580;DHT22;10951;59.656;9.666;2022-10-16T14:21:48;9.50;99.90
21580;DHT22;10951;59.656;9.666;2022-10-16T14:26:58;9.40;99.90
21580;DHT22;10951;59.656;9.666;2022-10-16T14:29:27;9.40;99.90
21580;DHT22;10951;59.656;9.666;2022-10-16T14:32:05;9.50;99.90
21580;DHT22;10951;59.656;9.666;2022-10-16T14:34:35;9.60;99.90
21580;DHT22;10951;59.656;9.666;2022-10-16T14:37:25;9.60;99.90
21580;DHT22;10951;59.656;9.666;2022-10-16T14:39:55;9.80;99.90
21580;DHT22;10951;59.656;9.666;2022-10-16T14:42:24;9.90;99.90
21580;DHT22;10951;59.656;9.666;2022-10-16T14:44:53;9.80;99.90
21580;DHT22;10951;59.656;9.666;2022-10-16T14:47:23;9.90;99.90
21580;DHT22;10951;59.656;9.666;2022-10-16T14:49:54;9.80;99.90
21580;DHT22;10951;59.656;9.666;2022-10-16T14:52:22;9.70;99.90
21580;DHT22;10951;59.656;9.666;2022-10-16T14:54:50;9.60;99.90
21580;DHT22;10951;59.656;9.666;2022-10-16T14:57:19;9.60;99.90
21580;DHT22;10951;59.656;9.666;2022-10-16T14:59:49;9.50;99.90
21580;DHT22;10951;59.656;9.666;2022-10-16T15:04:48;9.50;99.90
21580;DHT22;10951;59.656;9.666;2022-10-16T15:07:15;9.50;99.90
21580;DHT22;10951;59.656;9.666;2022-10-16T15:09:42;9.40;99.90
21580;DHT22;10951;59.656;9.666;2022-10-16T15:12:15;9.50;99.90
21580;DHT22;10951;59.656;9.666;2022-10-16T15:14:43;9.50;99.90
21580;DHT22;10951;59.656;9.666;2022-10-16T15:17:12;9.40;99.90
21580;DHT22;10951;59.656;9.666;2022-10-16T15:19:44;9.40;99.90
21580;DHT22;10951;59.656;9.666;2022-10-16T15:22:11;9.40;99.90
21580;DHT22;10951;59.656;9.666;2022-10-16T15:24:39;9.40;99.90
21580;DHT22;10951;59.656;9.666;2022-10-16T15:27:06;9.30;99.90
21580;DHT22;10951;59.656;9.666;2022-10-16T15:29:33;9.20;99.90
21580;DHT22;10951;59.656;9.666;2022-10-16T15:31:59;9.20;99.90
21580;DHT22;10951;59.656;9.666;2022-10-16T15:34:26;9.10;99.90
21580;DHT22;10951;59.656;9.666;2022-10-16T15:36:53;9.00;99.90
21580;DHT22;10951;59.656;9.666;2022-10-16T15:39:21;8.80;99.90
21580;DHT22;10951;59.656;9.666;2022-10-16T15:41:48;8.80;99.90
21580;DHT22;10951;59.656;9.666;2022-10-16T15:44:18;8.70;99.90
21580;DHT22;10951;59.656;9.666;2022-10-16T15:46:45;8.60;99.90
21580;DHT22;10951;59.656;9.666;2022-10-16T15:49:12;8.50;99.90
21580;DHT22;10951;59.656;9.666;2022-10-16T15:51:41;8.30;99.90
21580;DHT22;10951;59.656;9.666;2022-10-16T15:54:08;8.20;99.90
21580;DHT22;10951;59.656;9.666;2022-10-16T15:56:35;8.10;99.90
21580;DHT22;10951;59.656;9.666;2022-10-16T15:59:04;8.20;99.90
21580;DHT22;10951;59.656;9.666;2022-10-16T16:01:33;8.10;99.90
21580;DHT22;10951;59.656;9.666;2022-10-16T16:04:01;8.10;99.90
21580;DHT22;10951;59.656;9.666;2022-10-16T16:06:41;8.00;99.90
21580;DHT22;10951;59.656;9.666;2022-10-16T16:09:12;8.00;99.90
21580;DHT22;10951;59.656;9.666;2022-10-16T16:11:40;7.90;99.90
21580;DHT22;10951;59.656;9.666;2022-10-16T16:14:11;7.80;99.90
21580;DHT22;10951;59.656;9.666;2022-10-16T16:16:39;7.70;99.90
21580;DHT22;10951;59.656;9.666;2022-10-16T16:19:06;7.60;99.90
21580;DHT22;10951;59.656;9.666;2022-10-16T16:21:38;7.60;99.90
21580;DHT22;10951;59.656;9.666;2022-10-16T16:24:05;7.50;99.90
21580;DHT22;10951;59.656;9.666;2022-10-16T16:26:36;7.40;99.90
21580;DHT22;10951;59.656;9.666;2022-10-16T16:29:06;7.40;99.90
21580;DHT22;10951;59.656;9.666;2022-10-16T16:31:33;7.40;99.90
21580;DHT22;10951;59.656;9.666;2022-10-16T16:34:01;7.40;99.90
21580;DHT22;10951;59.656;9.666;2022-10-16T16:36:29;7.40;99.90
21580;DHT22;10951;59.656;9.666;2022-10-16T16:38:56;7.40;99.90
21580;DHT22;10951;59.656;9.666;2022-10-16T16:41:25;7.40;99.90
21580;DHT22;10951;59.656;9.666;2022-10-16T16:43:54;7.40;99.90
21580;DHT22;10951;59.656;9.666;2022-10-16T16:46:21;7.40;99.90
21580;DHT22;10951;59.656;9.666;2022-10-16T16:48:48;7.40;99.90
21580;DHT22;10951;59.656;9.666;2022-10-16T16:51:17;7.40;99.90
21580;DHT22;10951;59.656;9.666;2022-10-16T16:53:50;7.30;99.90
21580;DHT22;10951;59.656;9.666;2022-10-16T16:56:18;7.30;99.90
21580;DHT22;10951;59.656;9.666;2022-10-16T16:58:47;7.40;99.90
21580;DHT22;10951;59.656;9.666;2022-10-16T17:01:14;7.40;99.90
21580;DHT22;10951;59.656;9.666;2022-10-16T17:03:47;7.30;99.90
21580;DHT22;10951;59.656;9.666;2022-10-16T17:06:17;7.30;99.90
21580;DHT22;10951;59.656;9.666;2022-10-16T17:08:47;7.30;99.90
21580;DHT22;10951;59.656;9.666;2022-10-16T17:11:17;7.30;99.90
21580;DHT22;10951;59.656;9.666;2022-10-16T17:13:45;7.30;99.90
21580;DHT22;10951;59.656;9.666;2022-10-16T17:16:16;7.30;99.90
21580;DHT22;10951;59.656;9.666;2022-10-16T17:18:43;7.30;99.90
21580;DHT22;10951;59.656;9.666;2022-10-16T17:21:10;7.40;99.90
21580;DHT22;10951;59.656;9.666;2022-10-16T17:23:37;7.40;99.90
21580;DHT22;10951;59.656;9.666;2022-10-16T17:26:10;7.40;99.90
21580;DHT22;10951;59.656;9.666;2022-10-16T17:28:38;7.40;99.90
21580;DHT22;10951;59.656;9.666;2022-10-16T17:31:10;7.40;99.90
21580;DHT22;10951;59.656;9.666;2022-10-16T17:33:37;7.30;99.90
21580;DHT22;10951;59.656;9.666;2022-10-16T17:36:05;7.20;99.90
21580;DHT22;10951;59.656;9.666;2022-10-16T17:38:32;7.20;99.90
21580;DHT22;10951;59.656;9.666;2022-10-16T17:41:13;7.20;99.90
21580;DHT22;10951;59.656;9.666;2022-10-16T17:43:41;7.10;99.90
21580;DHT22;10951;59.656;9.666;2022-10-16T17:46:09;7.00;99.90
21580;DHT22;10951;59.656;9.666;2022-10-16T17:48:44;7.00;99.90
21580;DHT22;10951;59.656;9.666;2022-10-16T17:51:14;7.00;99.90
21580;DHT22;10951;59.656;9.666;2022-10-16T17:53:41;7.00;99.90
21580;DHT22;10951;59.656;9.666;2022-10-16T17:56:10;6.90;99.90